PWSweather.com
Personal Weather Stations
Station Observations
KWABLAIN13
Ptl Weather, Blaine, WA

Ptl WeatherBlaine, WA

Lat: 48.997393, Lon: -122.748614

Elevation: 57

Station Type: Davis Advantage Pro 2

http://www.ptlnet.net

Latest ConditionsUpdated 10:10:03 PM PDT Sunday, Sep 25, 2016
Currently Today's Max Today's Min Today's Average
Temperature 59.0°F15.0°C 71.3°F21.8°C 54.4°F12.4°C 60.1°F15.6°C
Dew Point 53.9°F12.2°C 57.4°F14.1°C 51.6°F10.9°C 54.1°F12.3°C
Winds Calm Calm 9.0 mph N14.5 kmh N - 1.4 mph 2.3 kmh
Wind Gusts 2.0 mph3.2 kmh 9.0 mph14.5 kmh - -
Humidity 83% 94% 58% 82%
Pressure 30.26 in1024.7 mb 30.42 in1030.1 mb 30.25 in1024.4 mb -
Hour Temp Dew Point Humidity Winds Wind Gusts Pressure Precip Precip Rate Daily Precip Total
10:10 PM 59.0°F15.0°C 53.9°F12.2°C 83% Calm Calm 2.0 mph3.2 kmh 30.26 in1024.7 mb 0.00 in0.0 mm 0.00 in0.0 mm 0.02 in0.5 mm
10:05 PM 59.1°F15.1°C 54.0°F12.2°C 83% Calm Calm 2.0 mph3.2 kmh 30.25 in1024.4 mb 0.00 in0.0 mm 0.00 in0.0 mm 0.02 in0.5 mm
09:50 PM 59.5°F15.3°C 54.0°F12.2°C 82% Calm Calm 3.0 mph4.8 kmh 30.26 in1024.7 mb 0.00 in0.0 mm 0.00 in0.0 mm 0.02 in0.5 mm
09:45 PM 59.6°F15.3°C 53.8°F12.1°C 81% 2.0 mph ENE3.2 kmh ENE 2.0 mph3.2 kmh 30.26 in1024.7 mb 0.00 in0.0 mm 0.00 in0.0 mm 0.02 in0.5 mm
09:29 PM 60.2°F15.7°C 54.0°F12.2°C 80% Calm Calm 4.0 mph6.4 kmh 30.27 in1025.1 mb 0.00 in0.0 mm 0.00 in0.0 mm 0.02 in0.5 mm
09:25 PM 60.5°F15.8°C 54.3°F12.4°C 80% 1.0 mph NE1.6 kmh NE 3.0 mph4.8 kmh 30.27 in1025.1 mb 0.00 in0.0 mm 0.00 in0.0 mm 0.02 in0.5 mm
09:09 PM 60.6°F15.9°C 54.1°F12.3°C 79% 2.0 mph NE3.2 kmh NE 3.0 mph4.8 kmh 30.27 in1025.1 mb 0.00 in0.0 mm 0.00 in0.0 mm 0.02 in0.5 mm
09:05 PM 60.7°F15.9°C 54.2°F12.3°C 79% Calm Calm 3.0 mph4.8 kmh 30.27 in1025.1 mb 0.00 in0.0 mm 0.00 in0.0 mm 0.02 in0.5 mm
08:49 PM 61.4°F16.3°C 54.5°F12.5°C 78% 1.0 mph NE1.6 kmh NE 3.0 mph4.8 kmh 30.28 in1025.4 mb 0.00 in0.0 mm 0.00 in0.0 mm 0.02 in0.5 mm
08:45 PM 61.5°F16.4°C 54.2°F12.3°C 77% 1.0 mph NE1.6 kmh NE 3.0 mph4.8 kmh 30.27 in1025.1 mb 0.00 in0.0 mm 0.00 in0.0 mm 0.02 in0.5 mm
08:29 PM 61.9°F16.6°C 54.3°F12.4°C 76% 1.0 mph NNW1.6 kmh NNW 1.0 mph1.6 kmh 30.28 in1025.4 mb 0.00 in0.0 mm 0.00 in0.0 mm 0.02 in0.5 mm
08:25 PM 61.9°F16.6°C 54.6°F12.6°C 77% Calm Calm 1.0 mph1.6 kmh 30.28 in1025.4 mb 0.00 in0.0 mm 0.00 in0.0 mm 0.02 in0.5 mm
08:10 PM 62.0°F16.7°C 54.7°F12.6°C 77% Calm Calm -- 30.28 in1025.4 mb 0.00 in0.0 mm 0.00 in0.0 mm 0.02 in0.5 mm
08:05 PM 61.9°F16.6°C 54.6°F12.6°C 77% Calm Calm 1.0 mph1.6 kmh 30.28 in1025.4 mb 0.00 in0.0 mm 0.00 in0.0 mm 0.02 in0.5 mm
07:50 PM 62.3°F16.8°C 55.0°F12.8°C 77% Calm Calm -- 30.28 in1025.4 mb 0.00 in0.0 mm 0.00 in0.0 mm 0.02 in0.5 mm
07:45 PM 62.3°F16.8°C 55.0°F12.8°C 77% Calm Calm -- 30.29 in1025.7 mb 0.00 in0.0 mm 0.00 in0.0 mm 0.02 in0.5 mm
07:30 PM 62.0°F16.7°C 54.7°F12.6°C 77% 1.0 mph NW1.6 kmh NW 3.0 mph4.8 kmh 30.29 in1025.7 mb 0.00 in0.0 mm 0.00 in0.0 mm 0.02 in0.5 mm
07:25 PM 61.8°F16.6°C 54.9°F12.7°C 78% 2.0 mph NW3.2 kmh NW 3.0 mph4.8 kmh 30.29 in1025.7 mb 0.00 in0.0 mm 0.00 in0.0 mm 0.02 in0.5 mm
07:10 PM 62.3°F16.8°C 56.7°F13.7°C 82% Calm Calm -- 30.29 in1025.7 mb 0.00 in0.0 mm 0.00 in0.0 mm 0.02 in0.5 mm
07:04 PM 62.5°F16.9°C 56.6°F13.7°C 81% Calm Calm -- 30.29 in1025.7 mb 0.00 in0.0 mm 0.00 in0.0 mm 0.02 in0.5 mm
06:50 PM 63.3°F17.4°C 56.7°F13.7°C 79% Calm Calm -- 30.30 in1026.1 mb 0.00 in0.0 mm 0.00 in0.0 mm 0.02 in0.5 mm
06:45 PM 63.6°F17.6°C 57.0°F13.9°C 79% Calm Calm -- 30.30 in1026.1 mb 0.00 in0.0 mm 0.00 in0.0 mm 0.02 in0.5 mm
06:30 PM 65.3°F18.5°C 57.2°F14.0°C 75% Calm Calm 3.0 mph4.8 kmh 30.30 in1026.1 mb 0.00 in0.0 mm 0.00 in0.0 mm 0.02 in0.5 mm
06:25 PM 66.2°F19.0°C 57.3°F14.1°C 73% 2.0 mph W3.2 kmh W 3.0 mph4.8 kmh 30.30 in1026.1 mb 0.00 in0.0 mm 0.00 in0.0 mm 0.02 in0.5 mm
06:10 PM 67.9°F19.9°C 57.4°F14.1°C 69% 2.0 mph W3.2 kmh W 4.0 mph6.4 kmh 30.31 in1026.4 mb 0.00 in0.0 mm 0.00 in0.0 mm 0.02 in0.5 mm
06:05 PM 68.3°F20.2°C 56.9°F13.8°C 67% 2.0 mph W3.2 kmh W 4.0 mph6.4 kmh 30.31 in1026.4 mb 0.00 in0.0 mm 0.00 in0.0 mm 0.02 in0.5 mm
05:50 PM 69.6°F20.9°C 55.6°F13.1°C 61% 1.0 mph NNW1.6 kmh NNW 5.0 mph8.0 kmh 30.32 in1026.8 mb 0.01 in0.3 mm 0.00 in0.0 mm 0.02 in0.5 mm
05:44 PM 69.9°F21.1°C 55.9°F13.3°C 61% 3.0 mph N4.8 kmh N 5.0 mph8.0 kmh 30.32 in1026.8 mb 0.01 in0.3 mm 0.00 in0.0 mm 0.02 in0.5 mm
05:29 PM 70.4°F21.3°C 56.3°F13.5°C 61% 2.0 mph N3.2 kmh N 9.0 mph14.5 kmh 30.32 in1026.8 mb 0.01 in0.3 mm 0.00 in0.0 mm 0.02 in0.5 mm
05:25 PM 70.5°F21.4°C 56.4°F13.6°C 61% 9.0 mph N14.5 kmh N 9.0 mph14.5 kmh 30.33 in1027.1 mb 0.01 in0.3 mm 0.00 in0.0 mm 0.02 in0.5 mm
05:09 PM 70.7°F21.5°C 56.2°F13.4°C 60% 2.0 mph WNW3.2 kmh WNW 9.0 mph14.5 kmh 30.33 in1027.1 mb 0.01 in0.3 mm 0.00 in0.0 mm 0.02 in0.5 mm
05:05 PM 70.7°F21.5°C 56.6°F13.7°C 61% 2.0 mph N3.2 kmh N 9.0 mph14.5 kmh 30.33 in1027.1 mb 0.01 in0.3 mm 0.00 in0.0 mm 0.02 in0.5 mm
04:50 PM 71.3°F21.8°C 56.3°F13.5°C 59% 2.0 mph N3.2 kmh N 2.0 mph3.2 kmh 30.33 in1027.1 mb 0.01 in0.3 mm 0.12 in3.0 mm 0.02 in0.5 mm
04:45 PM 71.1°F21.7°C 56.5°F13.6°C 60% 2.0 mph N3.2 kmh N 5.0 mph8.0 kmh 30.34 in1027.4 mb 0.00 in0.0 mm 0.00 in0.0 mm 0.01 in0.3 mm
04:30 PM 70.8°F21.6°C 56.2°F13.4°C 60% Calm Calm 6.0 mph9.7 kmh 30.34 in1027.4 mb 0.00 in0.0 mm 0.00 in0.0 mm 0.01 in0.3 mm
04:25 PM 70.9°F21.6°C 55.9°F13.3°C 59% 3.0 mph N4.8 kmh N 6.0 mph9.7 kmh 30.34 in1027.4 mb 0.00 in0.0 mm 0.00 in0.0 mm 0.01 in0.3 mm
04:10 PM 70.6°F21.4°C 56.1°F13.4°C 60% 1.0 mph NNW1.6 kmh NNW 9.0 mph14.5 kmh 30.35 in1027.8 mb 0.00 in0.0 mm 0.00 in0.0 mm 0.01 in0.3 mm
04:05 PM 70.8°F21.6°C 55.3°F12.9°C 58% 5.0 mph NW8.0 kmh NW 7.0 mph11.3 kmh 30.35 in1027.8 mb 0.00 in0.0 mm 0.00 in0.0 mm 0.01 in0.3 mm
03:50 PM 70.4°F21.3°C 55.9°F13.3°C 60% 4.0 mph E6.4 kmh E 9.0 mph14.5 kmh 30.35 in1027.8 mb 0.00 in0.0 mm 0.00 in0.0 mm 0.01 in0.3 mm
03:45 PM 70.8°F21.6°C 55.3°F12.9°C 58% Calm Calm 9.0 mph14.5 kmh 30.36 in1028.1 mb 0.00 in0.0 mm 0.00 in0.0 mm 0.01 in0.3 mm
03:30 PM 70.6°F21.4°C 57.0°F13.9°C 62% 2.0 mph N3.2 kmh N 6.0 mph9.7 kmh 30.37 in1028.4 mb 0.00 in0.0 mm 0.00 in0.0 mm 0.01 in0.3 mm
03:25 PM 70.3°F21.3°C 56.2°F13.4°C 61% Calm Calm 6.0 mph9.7 kmh 30.37 in1028.4 mb 0.00 in0.0 mm 0.00 in0.0 mm 0.01 in0.3 mm
03:09 PM 69.5°F20.8°C 55.9°F13.3°C 62% 1.0 mph NNW1.6 kmh NNW 5.0 mph8.0 kmh 30.38 in1028.8 mb 0.00 in0.0 mm 0.00 in0.0 mm 0.01 in0.3 mm
03:05 PM 69.3°F20.7°C 56.6°F13.7°C 64% Calm Calm 5.0 mph8.0 kmh 30.38 in1028.8 mb 0.00 in0.0 mm 0.00 in0.0 mm 0.01 in0.3 mm
02:49 PM 68.5°F20.3°C 56.3°F13.5°C 65% 2.0 mph NE3.2 kmh NE 8.0 mph12.9 kmh 30.38 in1028.8 mb 0.00 in0.0 mm 0.00 in0.0 mm 0.01 in0.3 mm
02:45 PM 68.2°F20.1°C 55.1°F12.8°C 63% 4.0 mph NNW6.4 kmh NNW 6.0 mph9.7 kmh 30.38 in1028.8 mb 0.00 in0.0 mm 0.00 in0.0 mm 0.01 in0.3 mm
02:30 PM 67.6°F19.8°C 55.4°F13.0°C 65% 3.0 mph NW4.8 kmh NW 6.0 mph9.7 kmh 30.38 in1028.8 mb 0.00 in0.0 mm 0.00 in0.0 mm 0.01 in0.3 mm
02:25 PM 67.6°F19.8°C 56.3°F13.5°C 67% 3.0 mph E4.8 kmh E 5.0 mph8.0 kmh 30.38 in1028.8 mb 0.00 in0.0 mm 0.00 in0.0 mm 0.01 in0.3 mm
02:10 PM 66.7°F19.3°C 55.4°F13.0°C 67% Calm Calm 5.0 mph8.0 kmh 30.39 in1029.1 mb 0.00 in0.0 mm 0.00 in0.0 mm 0.01 in0.3 mm
02:05 PM 66.2°F19.0°C 55.7°F13.2°C 69% 1.0 mph ENE1.6 kmh ENE 5.0 mph8.0 kmh 30.40 in1029.5 mb 0.00 in0.0 mm 0.00 in0.0 mm 0.01 in0.3 mm
01:50 PM 65.3°F18.5°C 55.3°F12.9°C 70% 1.0 mph ENE1.6 kmh ENE 3.0 mph4.8 kmh 30.39 in1029.1 mb 0.00 in0.0 mm 0.00 in0.0 mm 0.01 in0.3 mm
01:45 PM 65.2°F18.4°C 55.6°F13.1°C 71% Calm Calm 3.0 mph4.8 kmh 30.40 in1029.5 mb 0.00 in0.0 mm 0.00 in0.0 mm 0.01 in0.3 mm
01:29 PM 64.3°F17.9°C 55.9°F13.3°C 74% Calm Calm 7.0 mph11.3 kmh 30.40 in1029.5 mb 0.00 in0.0 mm 0.00 in0.0 mm 0.01 in0.3 mm
01:25 PM 64.1°F17.8°C 55.3°F12.9°C 73% 2.0 mph N3.2 kmh N 7.0 mph11.3 kmh 30.40 in1029.5 mb 0.00 in0.0 mm 0.00 in0.0 mm 0.01 in0.3 mm
01:10 PM 63.8°F17.7°C 55.7°F13.2°C 75% Calm Calm 5.0 mph8.0 kmh 30.40 in1029.5 mb 0.00 in0.0 mm 0.00 in0.0 mm 0.01 in0.3 mm
01:05 PM 63.6°F17.6°C 55.9°F13.3°C 76% 1.0 mph NE1.6 kmh NE 5.0 mph8.0 kmh 30.40 in1029.5 mb 0.00 in0.0 mm 0.00 in0.0 mm 0.01 in0.3 mm
12:50 PM 62.8°F17.1°C 55.9°F13.3°C 78% Calm Calm 6.0 mph9.7 kmh 30.40 in1029.5 mb 0.00 in0.0 mm 0.00 in0.0 mm 0.01 in0.3 mm
12:45 PM 62.4°F16.9°C 55.5°F13.1°C 78% 1.0 mph N1.6 kmh N 6.0 mph9.7 kmh 30.41 in1029.8 mb 0.00 in0.0 mm 0.00 in0.0 mm 0.01 in0.3 mm
12:30 PM 61.8°F16.6°C 55.2°F12.9°C 79% 1.0 mph NE1.6 kmh NE 8.0 mph12.9 kmh 30.41 in1029.8 mb 0.00 in0.0 mm 0.00 in0.0 mm 0.01 in0.3 mm
12:24 PM 61.6°F16.4°C 55.4°F13.0°C 80% 2.0 mph NE3.2 kmh NE 8.0 mph12.9 kmh 30.42 in1030.1 mb 0.00 in0.0 mm 0.00 in0.0 mm 0.01 in0.3 mm
12:10 PM 61.2°F16.2°C 54.6°F12.6°C 79% 1.0 mph NNE1.6 kmh NNE 5.0 mph8.0 kmh 30.41 in1029.8 mb 0.00 in0.0 mm 0.00 in0.0 mm 0.01 in0.3 mm
12:05 PM 61.0°F16.1°C 55.1°F12.8°C 81% 2.0 mph ENE3.2 kmh ENE 5.0 mph8.0 kmh 30.41 in1029.8 mb 0.00 in0.0 mm 0.00 in0.0 mm 0.01 in0.3 mm
11:50 AM 60.4°F15.8°C 54.2°F12.3°C 80% Calm Calm 6.0 mph9.7 kmh 30.41 in1029.8 mb 0.00 in0.0 mm 0.00 in0.0 mm 0.01 in0.3 mm
11:45 AM 60.4°F15.8°C 54.2°F12.3°C 80% 2.0 mph NNE3.2 kmh NNE 3.0 mph4.8 kmh 30.42 in1030.1 mb 0.00 in0.0 mm 0.00 in0.0 mm 0.01 in0.3 mm
11:30 AM 60.0°F15.6°C 54.2°F12.3°C 81% 1.0 mph NNE1.6 kmh NNE 6.0 mph9.7 kmh 30.42 in1030.1 mb 0.00 in0.0 mm 0.00 in0.0 mm 0.01 in0.3 mm
11:24 AM 60.0°F15.6°C 54.2°F12.3°C 81% Calm Calm 6.0 mph9.7 kmh 30.41 in1029.8 mb 0.00 in0.0 mm 0.00 in0.0 mm 0.01 in0.3 mm
11:10 AM 59.4°F15.2°C 54.2°F12.3°C 83% 3.0 mph NE4.8 kmh NE 5.0 mph8.0 kmh 30.41 in1029.8 mb 0.00 in0.0 mm 0.00 in0.0 mm 0.01 in0.3 mm
11:05 AM 59.2°F15.1°C 54.1°F12.3°C 83% Calm Calm 5.0 mph8.0 kmh 30.41 in1029.8 mb 0.00 in0.0 mm 0.00 in0.0 mm 0.01 in0.3 mm
10:50 AM 58.8°F14.9°C 54.3°F12.4°C 85% 4.0 mph NE6.4 kmh NE 6.0 mph9.7 kmh 30.41 in1029.8 mb 0.00 in0.0 mm 0.00 in0.0 mm 0.01 in0.3 mm
10:45 AM 58.5°F14.7°C 54.3°F12.4°C 86% 1.0 mph NE1.6 kmh NE 6.0 mph9.7 kmh 30.41 in1029.8 mb 0.00 in0.0 mm 0.00 in0.0 mm 0.01 in0.3 mm
10:30 AM 57.6°F14.2°C 53.8°F12.1°C 87% 2.0 mph NNE3.2 kmh NNE 7.0 mph11.3 kmh 30.41 in1029.8 mb 0.00 in0.0 mm 0.00 in0.0 mm 0.01 in0.3 mm
10:25 AM 57.4°F14.1°C 53.6°F12.0°C 87% 2.0 mph NE3.2 kmh NE 7.0 mph11.3 kmh 30.41 in1029.8 mb 0.00 in0.0 mm 0.00 in0.0 mm 0.01 in0.3 mm
10:10 AM 56.9°F13.8°C 53.4°F11.9°C 88% 2.0 mph NNE3.2 kmh NNE 5.0 mph8.0 kmh 30.41 in1029.8 mb 0.00 in0.0 mm 0.00 in0.0 mm 0.01 in0.3 mm
10:05 AM 56.8°F13.8°C 53.6°F12.0°C 89% 3.0 mph NE4.8 kmh NE 5.0 mph8.0 kmh 30.41 in1029.8 mb 0.00 in0.0 mm 0.00 in0.0 mm 0.01 in0.3 mm
09:50 AM 56.2°F13.4°C 53.3°F11.8°C 90% 2.0 mph NE3.2 kmh NE 5.0 mph8.0 kmh 30.41 in1029.8 mb 0.00 in0.0 mm 0.00 in0.0 mm 0.01 in0.3 mm
09:45 AM 56.0°F13.3°C 53.1°F11.7°C 90% 2.0 mph N3.2 kmh N 5.0 mph8.0 kmh 30.41 in1029.8 mb 0.00 in0.0 mm 0.00 in0.0 mm 0.01 in0.3 mm
09:29 AM 55.6°F13.1°C 52.7°F11.5°C 90% 2.0 mph NE3.2 kmh NE 5.0 mph8.0 kmh 30.41 in1029.8 mb 0.00 in0.0 mm 0.00 in0.0 mm 0.01 in0.3 mm
09:25 AM 55.4°F13.0°C 52.5°F11.4°C 90% Calm Calm 4.0 mph6.4 kmh 30.41 in1029.8 mb 0.00 in0.0 mm 0.00 in0.0 mm 0.01 in0.3 mm
09:10 AM 55.1°F12.8°C 52.2°F11.2°C 90% 1.0 mph NE1.6 kmh NE 4.0 mph6.4 kmh 30.40 in1029.5 mb 0.00 in0.0 mm 0.00 in0.0 mm 0.01 in0.3 mm
09:05 AM 55.0°F12.8°C 52.1°F11.2°C 90% 1.0 mph NNE1.6 kmh NNE 4.0 mph6.4 kmh 30.41 in1029.8 mb 0.00 in0.0 mm 0.00 in0.0 mm 0.01 in0.3 mm
08:50 AM 54.9°F12.7°C 52.3°F11.3°C 91% 3.0 mph NE4.8 kmh NE 5.0 mph8.0 kmh 30.40 in1029.5 mb 0.00 in0.0 mm 0.00 in0.0 mm 0.01 in0.3 mm
08:45 AM 54.9°F12.7°C 52.3°F11.3°C 91% 1.0 mph E1.6 kmh E 5.0 mph8.0 kmh 30.40 in1029.5 mb 0.00 in0.0 mm 0.00 in0.0 mm 0.01 in0.3 mm
08:30 AM 54.8°F12.7°C 52.2°F11.2°C 91% 2.0 mph NE3.2 kmh NE 3.0 mph4.8 kmh 30.40 in1029.5 mb 0.00 in0.0 mm 0.00 in0.0 mm 0.01 in0.3 mm
08:25 AM 54.7°F12.6°C 51.8°F11.0°C 90% Calm Calm 3.0 mph4.8 kmh 30.40 in1029.5 mb 0.00 in0.0 mm 0.00 in0.0 mm 0.01 in0.3 mm
08:10 AM 54.6°F12.6°C 51.7°F10.9°C 90% 3.0 mph ENE4.8 kmh ENE 5.0 mph8.0 kmh 30.39 in1029.1 mb 0.00 in0.0 mm 0.00 in0.0 mm 0.01 in0.3 mm
08:05 AM 54.6°F12.6°C 51.7°F10.9°C 90% 1.0 mph NE1.6 kmh NE 5.0 mph8.0 kmh 30.40 in1029.5 mb 0.00 in0.0 mm 0.00 in0.0 mm 0.01 in0.3 mm
07:50 AM 54.6°F12.6°C 51.7°F10.9°C 90% 3.0 mph N4.8 kmh N 5.0 mph8.0 kmh 30.39 in1029.1 mb 0.00 in0.0 mm 0.00 in0.0 mm 0.01 in0.3 mm
07:45 AM 54.7°F12.6°C 51.8°F11.0°C 90% Calm Calm 3.0 mph4.8 kmh 30.39 in1029.1 mb 0.00 in0.0 mm 0.00 in0.0 mm 0.01 in0.3 mm
07:30 AM 54.8°F12.7°C 51.6°F10.9°C 89% 2.0 mph NE3.2 kmh NE 5.0 mph8.0 kmh 30.39 in1029.1 mb 0.00 in0.0 mm 0.00 in0.0 mm 0.01 in0.3 mm
07:25 AM 54.8°F12.7°C 51.6°F10.9°C 89% 1.0 mph N1.6 kmh N 5.0 mph8.0 kmh 30.39 in1029.1 mb 0.00 in0.0 mm 0.00 in0.0 mm 0.01 in0.3 mm
07:10 AM 54.8°F12.7°C 51.6°F10.9°C 89% 1.0 mph NE1.6 kmh NE 8.0 mph12.9 kmh 30.39 in1029.1 mb 0.00 in0.0 mm 0.00 in0.0 mm 0.01 in0.3 mm
07:05 AM 54.8°F12.7°C 51.6°F10.9°C 89% 1.0 mph NNE1.6 kmh NNE 8.0 mph12.9 kmh 30.38 in1028.8 mb 0.00 in0.0 mm 0.00 in0.0 mm 0.01 in0.3 mm
06:50 AM 54.8°F12.7°C 51.9°F11.1°C 90% 3.0 mph ENE4.8 kmh ENE 5.0 mph8.0 kmh 30.38 in1028.8 mb 0.00 in0.0 mm 0.00 in0.0 mm 0.01 in0.3 mm
06:45 AM 54.7°F12.6°C 51.8°F11.0°C 90% 2.0 mph NE3.2 kmh NE 4.0 mph6.4 kmh 30.37 in1028.4 mb 0.00 in0.0 mm 0.00 in0.0 mm 0.01 in0.3 mm
06:30 AM 54.5°F12.5°C 51.9°F11.1°C 91% 2.0 mph N3.2 kmh N 5.0 mph8.0 kmh 30.37 in1028.4 mb 0.00 in0.0 mm 0.00 in0.0 mm 0.01 in0.3 mm
06:25 AM 54.4°F12.4°C 51.8°F11.0°C 91% 1.0 mph NE1.6 kmh NE 4.0 mph6.4 kmh 30.38 in1028.8 mb 0.00 in0.0 mm 0.00 in0.0 mm 0.01 in0.3 mm
06:09 AM 54.4°F12.4°C 51.8°F11.0°C 91% 4.0 mph NE6.4 kmh NE 5.0 mph8.0 kmh 30.37 in1028.4 mb 0.00 in0.0 mm 0.00 in0.0 mm 0.01 in0.3 mm
06:05 AM 54.4°F12.4°C 51.8°F11.0°C 91% 3.0 mph E4.8 kmh E 5.0 mph8.0 kmh 30.37 in1028.4 mb 0.00 in0.0 mm 0.00 in0.0 mm 0.01 in0.3 mm
05:50 AM 54.4°F12.4°C 51.8°F11.0°C 91% 2.0 mph N3.2 kmh N 4.0 mph6.4 kmh 30.37 in1028.4 mb 0.00 in0.0 mm 0.00 in0.0 mm 0.01 in0.3 mm
05:45 AM 54.4°F12.4°C 51.8°F11.0°C 91% 3.0 mph NE4.8 kmh NE 4.0 mph6.4 kmh 30.37 in1028.4 mb 0.00 in0.0 mm 0.00 in0.0 mm 0.01 in0.3 mm
05:30 AM 54.4°F12.4°C 51.8°F11.0°C 91% Calm Calm 3.0 mph4.8 kmh 30.37 in1028.4 mb 0.00 in0.0 mm 0.00 in0.0 mm 0.01 in0.3 mm
05:25 AM 54.4°F12.4°C 51.8°F11.0°C 91% 1.0 mph NE1.6 kmh NE 3.0 mph4.8 kmh 30.37 in1028.4 mb 0.00 in0.0 mm 0.00 in0.0 mm 0.01 in0.3 mm
05:10 AM 54.4°F12.4°C 51.8°F11.0°C 91% 4.0 mph NE6.4 kmh NE 8.0 mph12.9 kmh 30.37 in1028.4 mb 0.00 in0.0 mm 0.00 in0.0 mm 0.01 in0.3 mm
05:05 AM 54.4°F12.4°C 51.8°F11.0°C 91% 1.0 mph NE1.6 kmh NE 8.0 mph12.9 kmh 30.37 in1028.4 mb 0.00 in0.0 mm 0.00 in0.0 mm 0.01 in0.3 mm
04:50 AM 54.4°F12.4°C 52.1°F11.2°C 92% 1.0 mph ENE1.6 kmh ENE 5.0 mph8.0 kmh 30.37 in1028.4 mb 0.00 in0.0 mm 0.00 in0.0 mm 0.01 in0.3 mm
04:45 AM 54.5°F12.5°C 52.2°F11.2°C 92% 2.0 mph NNE3.2 kmh NNE 4.0 mph6.4 kmh 30.37 in1028.4 mb 0.00 in0.0 mm 0.00 in0.0 mm 0.01 in0.3 mm
04:29 AM 54.6°F12.6°C 52.6°F11.4°C 93% 2.0 mph NNE3.2 kmh NNE 3.0 mph4.8 kmh 30.37 in1028.4 mb 0.00 in0.0 mm 0.00 in0.0 mm 0.01 in0.3 mm
04:25 AM 54.6°F12.6°C 52.6°F11.4°C 93% 2.0 mph E3.2 kmh E 3.0 mph4.8 kmh 30.37 in1028.4 mb 0.00 in0.0 mm 0.00 in0.0 mm 0.01 in0.3 mm
04:10 AM 54.8°F12.7°C 52.8°F11.6°C 93% 1.0 mph N1.6 kmh N 5.0 mph8.0 kmh 30.37 in1028.4 mb 0.00 in0.0 mm 0.00 in0.0 mm 0.01 in0.3 mm
04:05 AM 54.8°F12.7°C 52.8°F11.6°C 93% Calm Calm 5.0 mph8.0 kmh 30.36 in1028.1 mb 0.00 in0.0 mm 0.00 in0.0 mm 0.01 in0.3 mm
03:50 AM 54.9°F12.7°C 53.2°F11.8°C 94% Calm Calm -- 30.37 in1028.4 mb 0.00 in0.0 mm 0.00 in0.0 mm 0.01 in0.3 mm
03:45 AM 55.0°F12.8°C 53.3°F11.8°C 94% 2.0 mph NE3.2 kmh NE 4.0 mph6.4 kmh 30.37 in1028.4 mb 0.00 in0.0 mm 0.00 in0.0 mm 0.01 in0.3 mm
03:30 AM 55.1°F12.8°C 53.4°F11.9°C 94% 3.0 mph NE4.8 kmh NE 6.0 mph9.7 kmh 30.36 in1028.1 mb 0.00 in0.0 mm 0.00 in0.0 mm 0.01 in0.3 mm
03:24 AM 55.1°F12.8°C 53.4°F11.9°C 94% Calm Calm 6.0 mph9.7 kmh 30.37 in1028.4 mb 0.00 in0.0 mm 0.00 in0.0 mm 0.01 in0.3 mm
03:09 AM 55.3°F12.9°C 53.6°F12.0°C 94% 2.0 mph NE3.2 kmh NE 5.0 mph8.0 kmh 30.37 in1028.4 mb 0.00 in0.0 mm 0.00 in0.0 mm 0.01 in0.3 mm
03:05 AM 55.3°F12.9°C 53.6°F12.0°C 94% 3.0 mph N4.8 kmh N 5.0 mph8.0 kmh 30.37 in1028.4 mb 0.00 in0.0 mm 0.00 in0.0 mm 0.01 in0.3 mm
02:50 AM 55.3°F12.9°C 53.6°F12.0°C 94% Calm Calm -- 30.37 in1028.4 mb 0.00 in0.0 mm 0.00 in0.0 mm 0.01 in0.3 mm
02:44 AM 55.3°F12.9°C 53.6°F12.0°C 94% Calm Calm 3.0 mph4.8 kmh 30.37 in1028.4 mb 0.00 in0.0 mm 0.00 in0.0 mm 0.01 in0.3 mm
02:30 AM 55.3°F12.9°C 53.6°F12.0°C 94% 1.0 mph NNE1.6 kmh NNE 3.0 mph4.8 kmh 30.37 in1028.4 mb 0.00 in0.0 mm 0.00 in0.0 mm 0.01 in0.3 mm
02:25 AM 55.4°F13.0°C 53.7°F12.1°C 94% Calm Calm 3.0 mph4.8 kmh 30.37 in1028.4 mb 0.00 in0.0 mm 0.00 in0.0 mm 0.01 in0.3 mm
02:10 AM 55.5°F13.1°C 53.8°F12.1°C 94% 1.0 mph NE1.6 kmh NE 2.0 mph3.2 kmh 30.38 in1028.8 mb 0.00 in0.0 mm 0.00 in0.0 mm 0.01 in0.3 mm
02:05 AM 55.4°F13.0°C 53.7°F12.1°C 94% 1.0 mph NE1.6 kmh NE 1.0 mph1.6 kmh 30.38 in1028.8 mb 0.00 in0.0 mm 0.00 in0.0 mm 0.01 in0.3 mm
01:50 AM 55.5°F13.1°C 53.8°F12.1°C 94% Calm Calm 3.0 mph4.8 kmh 30.38 in1028.8 mb 0.00 in0.0 mm 0.00 in0.0 mm 0.01 in0.3 mm
01:45 AM 55.5°F13.1°C 53.8°F12.1°C 94% Calm Calm 2.0 mph3.2 kmh 30.38 in1028.8 mb 0.00 in0.0 mm 0.00 in0.0 mm 0.01 in0.3 mm
01:30 AM 55.4°F13.0°C 53.7°F12.1°C 94% 5.0 mph N8.0 kmh N 5.0 mph8.0 kmh 30.38 in1028.8 mb 0.00 in0.0 mm 0.00 in0.0 mm 0.01 in0.3 mm
01:25 AM 55.3°F12.9°C 53.6°F12.0°C 94% Calm Calm -- 30.38 in1028.8 mb 0.00 in0.0 mm 0.00 in0.0 mm 0.01 in0.3 mm
01:10 AM 55.3°F12.9°C 53.3°F11.8°C 93% Calm Calm 4.0 mph6.4 kmh 30.38 in1028.8 mb 0.00 in0.0 mm 0.00 in0.0 mm 0.01 in0.3 mm
01:05 AM 55.3°F12.9°C 53.3°F11.8°C 93% 3.0 mph ENE4.8 kmh ENE 4.0 mph6.4 kmh 30.38 in1028.8 mb 0.00 in0.0 mm 0.00 in0.0 mm 0.01 in0.3 mm
12:50 AM 55.4°F13.0°C 53.4°F11.9°C 93% Calm Calm 3.0 mph4.8 kmh 30.38 in1028.8 mb 0.00 in0.0 mm 0.00 in0.0 mm 0.01 in0.3 mm
12:44 AM 55.5°F13.1°C 53.5°F11.9°C 93% Calm Calm 3.0 mph4.8 kmh 30.38 in1028.8 mb 0.00 in0.0 mm 0.00 in0.0 mm 0.01 in0.3 mm
12:30 AM 55.7°F13.2°C 53.7°F12.1°C 93% Calm Calm 3.0 mph4.8 kmh 30.38 in1028.8 mb 0.01 in0.3 mm 0.00 in0.0 mm 0.01 in0.3 mm
12:25 AM 55.9°F13.3°C 53.9°F12.2°C 93% 2.0 mph E3.2 kmh E 3.0 mph4.8 kmh 30.38 in1028.8 mb 0.01 in0.3 mm 0.00 in0.0 mm 0.01 in0.3 mm
12:10 AM 55.9°F13.3°C 53.9°F12.2°C 93% Calm Calm -- 30.40 in1029.5 mb 0.01 in0.3 mm 0.00 in0.0 mm 0.01 in0.3 mm
12:05 AM 56.0°F13.3°C 54.0°F12.2°C 93% Calm Calm -- 30.39 in1029.1 mb 0.01 in0.3 mm 0.12 in3.0 mm 0.01 in0.3 mm